Stonewall, OK

6:26 PM CDT on August 29, 2014 (GMT -0500)
Ada Municipal | Change Station
CLOSE
Current Station
Airport
Location: Ada,
Elevation: 1017 ft
Nearby Weather Stations

Elev 1017 ft 34.80 °N, 96.67 °W | Updated 11 minutes ago

Clear
Clear
86 °F
Feels Like 90 °F
N
6
Wind Variable Wind from WSW

Today
High -- | Low -- °F
--% Chance of Precip.
Yesterday
High -- | Low -- °F
Precip. -- in
6:57 AM 7:56 PM
Waxing Crescent, 17% visible
Pressure 29.88 in
Visibility 10.0 miles
Clouds Clear
Heat Index 90 °F
Dew Point 70 °F
Humidity 58%
Rainfall 0.00 in
Snow Depth Not available.
UV 2 out of 12
Pollen 7.60 out of 12
Air Quality Not available.
Flu Activity Not available.
METAR KADH 292315Z AUTO 24005KT 10SM CLR 30/21 A2988 RMK AO2

More Conditions Fewer Conditions

Pressure 29.88 in
Visibility 10.0 miles
Clouds Clear
Heat Index 90 °F
Dew Point 70 °F
Humidity 58%
Rainfall 0.00 in
Snow Depth Not available.
UV 2 out of 12
Pollen 7.60 out of 12
Air Quality Not available.
Flu Activity Not available.
METAR KADH 292315Z AUTO 24005KT 10SM CLR 30/21 A2988 RMK AO2

More Conditions Fewer Conditions

10-Day Weather Forecast

Almanac

Astronomy

Aug. 29, 2014 Rise Set
Actual Time 6:57 AM CDT 7:56 PM CDT
Civil Twilight 6:31 AM CDT 8:22 PM CDT
Nautical Twilight 6:00 AM CDT 8:52 PM CDT
Astronomical Twilight 5:28 AM CDT 9:24 PM CDT
Moon 10:36 AM CDT 10:06 PM CDT
Length of Visible Light 13h 51m
Length of Day
12h 59m
Tomorrow will be 2m 4s shorter.
Waxing Crescent, 17% of the Moon is Illuminated
Today
Waxing Crescent
Sep 2
First Quarter
Sep 8
Full
Sep 15
Last Quarter
Sep 24
New

Today's Extremes

State Highs State Lows

Community

WunderPhotos

Upload Photos

1,748,373 photos uploaded!

Nearby

Snow Depth

Station Depth Elevation
No new snow has been reported.

Earthquake Activity

City Distance Mag. Time & Date
Guthrie, Oklahoma 95 miles 3.2 10:39 AM CDT
2014-08-29
Perry, Oklahoma 122 miles 3.0 4:52 AM CDT
2014-08-29
Stillwater, Oklahoma 106 miles 3.1 10:44 AM CDT
2014-08-27
Minimum magnitude displayed is 2.5.

Coastal Water Temperatures

Place Temperature
No Stations Reporting

Nearby Weather Stations